createdAt,value
2023-05-19T00:00:54.752Z,13.84
2023-05-19T00:03:27.720Z,13.82
2023-05-19T00:05:59.507Z,13.81
2023-05-19T00:08:33.588Z,13.80
2023-05-19T00:11:03.380Z,13.77
2023-05-19T00:13:35.007Z,13.75
2023-05-19T00:16:07.999Z,13.72
2023-05-19T00:18:42.216Z,13.70
2023-05-19T00:21:13.766Z,13.69
2023-05-19T00:23:45.173Z,13.68
2023-05-19T00:26:17.400Z,13.69
2023-05-19T00:28:56.758Z,13.68
2023-05-19T00:31:29.642Z,13.62
2023-05-19T00:34:01.056Z,13.58
2023-05-19T00:36:33.206Z,13.55
2023-05-19T00:39:03.283Z,13.52
2023-05-19T00:41:34.382Z,13.50
2023-05-19T00:44:04.820Z,13.46
2023-05-19T00:46:39.186Z,13.44
2023-05-19T00:49:10.772Z,13.42
2023-05-19T00:51:42.301Z,13.39
2023-05-19T00:54:12.822Z,13.38
2023-05-19T00:56:45.346Z,13.36
2023-05-19T00:59:18.712Z,13.35
2023-05-19T01:01:52.381Z,13.33
2023-05-19T01:04:26.362Z,13.30
2023-05-19T01:06:58.303Z,13.28
2023-05-19T01:09:29.669Z,13.27
2023-05-19T01:12:02.639Z,13.26
2023-05-19T01:14:33.946Z,13.24
2023-05-19T01:17:17.066Z,13.23
2023-05-19T01:19:58.576Z,13.21
2023-05-19T01:22:44.536Z,13.19
2023-05-19T01:25:27.499Z,13.15
2023-05-19T01:28:18.770Z,13.12
2023-05-19T01:30:57.867Z,13.10
2023-05-19T01:33:32.962Z,13.05
2023-05-19T01:36:10.022Z,13.01
2023-05-19T01:38:48.651Z,12.99
2023-05-19T01:41:22.757Z,12.95
2023-05-19T01:43:56.050Z,12.92
2023-05-19T01:46:29.884Z,12.86
2023-05-19T01:49:05.637Z,12.81
2023-05-19T01:51:42.129Z,12.75
2023-05-19T01:54:19.125Z,12.70
2023-05-19T01:57:31.173Z,12.65
2023-05-19T02:00:06.448Z,12.56
2023-05-19T02:02:56.385Z,12.49
2023-05-19T02:05:53.684Z,12.42
2023-05-19T02:08:43.445Z,12.35
2023-05-19T02:11:42.207Z,12.28
2023-05-19T02:14:22.919Z,12.20
2023-05-19T02:16:55.382Z,12.14
2023-05-19T02:19:34.341Z,12.08
2023-05-19T02:22:05.451Z,12.04
2023-05-19T02:24:39.194Z,12.00
2023-05-19T02:27:11.128Z,11.94
2023-05-19T02:29:50.154Z,11.89
2023-05-19T02:32:22.349Z,11.86
2023-05-19T02:34:53.846Z,11.81
2023-05-19T02:37:30.786Z,11.79
2023-05-19T02:40:03.632Z,11.79
2023-05-19T02:42:34.248Z,11.76
2023-05-19T02:45:05.165Z,11.73
2023-05-19T02:47:37.021Z,11.70
2023-05-19T02:50:08.772Z,11.67
2023-05-19T02:52:39.475Z,11.63
2023-05-19T02:55:10.078Z,11.60
2023-05-19T02:57:39.608Z,11.56
2023-05-19T03:00:11.549Z,11.53
2023-05-19T03:02:42.376Z,11.49
2023-05-19T03:05:15.136Z,11.45
2023-05-19T03:07:46.506Z,11.41
2023-05-19T03:10:18.214Z,11.39
2023-05-19T03:12:48.718Z,11.38
2023-05-19T03:15:20.881Z,11.39
2023-05-19T03:17:55.438Z,11.39
2023-05-19T03:20:27.938Z,11.39
2023-05-19T03:22:59.264Z,11.41
2023-05-19T03:25:30.733Z,11.43
2023-05-19T03:28:00.897Z,11.46
2023-05-19T03:30:31.020Z,11.50
2023-05-19T03:33:08.609Z,11.51
2023-05-19T03:35:40.356Z,11.53
2023-05-19T03:38:10.280Z,11.54
2023-05-19T03:40:42.031Z,11.55
2023-05-19T03:43:15.151Z,11.57
2023-05-19T03:45:51.613Z,11.57
2023-05-19T03:48:52.609Z,11.61
2023-05-19T03:51:32.357Z,11.67
2023-05-19T03:54:11.706Z,11.73
2023-05-19T03:56:44.037Z,11.82
2023-05-19T03:59:13.805Z,11.90
2023-05-19T04:01:44.727Z,11.98
2023-05-19T04:04:13.624Z,12.06
2023-05-19T04:06:43.228Z,12.16
2023-05-19T04:09:14.150Z,12.24
2023-05-19T04:11:43.991Z,12.27
2023-05-19T04:14:14.406Z,12.28
2023-05-19T04:16:45.987Z,12.26
2023-05-19T04:19:15.332Z,12.27
2023-05-19T04:21:44.282Z,12.32
2023-05-19T04:24:13.981Z,12.38
2023-05-19T04:26:46.525Z,12.44
2023-05-19T04:29:18.670Z,12.54
2023-05-19T04:31:48.291Z,12.63
2023-05-19T04:34:20.996Z,12.74
2023-05-19T04:36:53.221Z,12.85
2023-05-19T04:39:23.368Z,12.98
2023-05-19T04:41:54.618Z,13.10
2023-05-19T04:44:24.243Z,13.23
2023-05-19T04:46:54.901Z,13.33
2023-05-19T04:49:25.735Z,13.46
2023-05-19T04:51:56.825Z,13.56
2023-05-19T04:54:28.895Z,13.63
2023-05-19T04:56:58.106Z,13.70
2023-05-19T04:59:28.120Z,13.68
2023-05-19T05:01:58.684Z,13.78
2023-05-19T05:04:29.380Z,13.92
2023-05-19T05:06:59.897Z,14.04
2023-05-19T05:09:31.047Z,14.07
2023-05-19T05:12:01.541Z,14.12
2023-05-19T05:14:31.523Z,14.09
2023-05-19T05:17:01.977Z,14.05
2023-05-19T05:19:32.138Z,14.07
2023-05-19T05:22:02.287Z,14.15
2023-05-19T05:24:33.710Z,14.29
2023-05-19T05:27:04.893Z,14.51
2023-05-19T05:29:35.781Z,14.64
2023-05-19T05:32:06.893Z,14.79
2023-05-19T05:34:38.650Z,14.85
2023-05-19T05:37:08.829Z,14.93
2023-05-19T05:39:38.127Z,15.11
2023-05-19T05:42:09.662Z,15.27
2023-05-19T05:44:39.380Z,15.45
2023-05-19T05:47:09.254Z,15.68
2023-05-19T05:49:39.857Z,15.85
2023-05-19T05:52:11.424Z,16.09
2023-05-19T05:54:45.374Z,16.32
2023-05-19T05:57:15.796Z,16.40
2023-05-19T05:59:47.426Z,16.48
2023-05-19T06:02:18.986Z,16.47
2023-05-19T06:04:48.490Z,16.57
2023-05-19T06:07:17.300Z,16.40
2023-05-19T06:09:46.794Z,16.30
2023-05-19T06:12:16.853Z,16.46
2023-05-19T06:14:49.434Z,16.50
2023-05-19T06:17:29.184Z,16.90
2023-05-19T06:19:59.879Z,17.23
2023-05-19T06:22:29.081Z,17.33
2023-05-19T06:24:59.429Z,17.46
2023-05-19T06:27:28.508Z,17.57
2023-05-19T06:29:57.900Z,17.87
2023-05-19T06:32:27.336Z,18.06
2023-05-19T06:34:56.708Z,18.01
2023-05-19T06:37:27.129Z,18.07
2023-05-19T06:39:57.148Z,18.29
2023-05-19T06:42:27.843Z,18.59
2023-05-19T06:45:08.869Z,18.61
2023-05-19T06:47:38.479Z,18.64
2023-05-19T06:50:10.017Z,18.51
2023-05-19T06:52:40.233Z,18.42
2023-05-19T06:55:10.088Z,18.46
2023-05-19T06:57:40.798Z,18.39
2023-05-19T07:00:13.949Z,18.02
2023-05-19T07:02:46.777Z,17.83
2023-05-19T07:05:18.217Z,17.65
2023-05-19T07:07:52.361Z,17.54
2023-05-19T07:10:24.169Z,17.37
2023-05-19T07:12:54.307Z,17.17
2023-05-19T07:15:25.756Z,17.06
2023-05-19T07:17:56.018Z,16.83
2023-05-19T07:20:26.568Z,16.78
2023-05-19T07:22:56.707Z,17.04
2023-05-19T07:25:27.558Z,17.20
2023-05-19T07:27:57.692Z,17.48
2023-05-19T07:30:28.864Z,17.72
2023-05-19T07:32:58.593Z,17.90
2023-05-19T07:35:27.610Z,17.87
2023-05-19T07:37:56.614Z,17.59
2023-05-19T07:40:25.806Z,17.57
2023-05-19T07:42:54.892Z,17.60
2023-05-19T07:45:24.199Z,17.60
2023-05-19T07:47:54.692Z,17.77
2023-05-19T07:50:23.714Z,17.87
2023-05-19T07:52:52.813Z,18.18
2023-05-19T07:55:23.572Z,18.19
2023-05-19T07:57:52.650Z,18.37
2023-05-19T08:00:22.193Z,18.52
2023-05-19T08:02:51.236Z,18.40
2023-05-19T08:05:20.557Z,18.32
2023-05-19T08:07:50.181Z,18.90
2023-05-19T08:10:19.055Z,19.36
2023-05-19T08:12:48.967Z,19.84
2023-05-19T08:15:17.853Z,20.17
2023-05-19T08:17:47.895Z,20.36
2023-05-19T08:20:17.108Z,20.52
2023-05-19T08:22:46.368Z,20.49
2023-05-19T08:25:15.785Z,20.55
2023-05-19T08:27:44.876Z,20.69
2023-05-19T08:30:14.570Z,20.85
2023-05-19T08:32:43.692Z,21.31
2023-05-19T08:35:13.254Z,21.74
2023-05-19T08:37:42.570Z,21.69
2023-05-19T08:40:17.998Z,21.89
2023-05-19T08:42:47.850Z,22.15
2023-05-19T08:45:17.565Z,22.61
2023-05-19T08:47:48.411Z,23.09
2023-05-19T08:50:25.248Z,23.45
2023-05-19T08:53:02.794Z,23.72
2023-05-19T08:55:37.185Z,23.61
2023-05-19T08:58:07.600Z,23.56
2023-05-19T09:00:37.437Z,23.53
2023-05-19T09:05:41.734Z,24.07
2023-05-19T09:08:10.731Z,24.01
2023-05-19T09:10:40.026Z,23.71
2023-05-19T09:13:10.290Z,23.67
2023-05-19T09:15:41.981Z,23.37
2023-05-19T09:18:13.468Z,23.16
2023-05-19T09:20:45.352Z,23.70
2023-05-19T09:23:16.491Z,24.51
2023-05-19T09:25:53.635Z,25.13
2023-05-19T09:28:26.053Z,24.95
2023-05-19T09:31:09.440Z,25.24
2023-05-19T09:33:42.144Z,25.00
2023-05-19T09:36:13.625Z,23.66
2023-05-19T09:38:43.099Z,23.11
2023-05-19T09:41:15.457Z,23.05
2023-05-19T09:43:54.592Z,23.12
2023-05-19T09:46:28.891Z,23.16
2023-05-19T09:49:01.783Z,23.43
2023-05-19T09:51:32.574Z,23.80
2023-05-19T09:54:01.516Z,24.31
2023-05-19T09:56:37.051Z,24.95
2023-05-19T09:59:07.570Z,24.89
2023-05-19T10:01:40.905Z,25.48
2023-05-19T10:04:10.495Z,25.65
2023-05-19T10:06:39.989Z,26.54
2023-05-19T10:09:09.084Z,26.59
2023-05-19T10:11:38.288Z,26.73
2023-05-19T10:14:08.820Z,27.01
2023-05-19T10:16:39.067Z,26.50
2023-05-19T10:19:09.958Z,26.62
2023-05-19T10:21:38.759Z,26.95
2023-05-19T10:24:07.657Z,27.07
2023-05-19T10:26:37.458Z,27.42
2023-05-19T10:29:06.858Z,26.84
2023-05-19T10:31:37.107Z,27.16
2023-05-19T10:34:13.568Z,27.33
2023-05-19T10:36:50.028Z,27.33
2023-05-19T10:39:33.668Z,27.45
2023-05-19T10:42:08.702Z,27.55
2023-05-19T10:44:47.532Z,27.70
2023-05-19T10:47:23.952Z,27.86
2023-05-19T10:49:54.267Z,27.61
2023-05-19T10:52:29.365Z,27.44
2023-05-19T10:54:58.705Z,27.36
2023-05-19T10:57:33.522Z,27.30
2023-05-19T11:00:26.953Z,26.99
2023-05-19T11:03:24.515Z,26.86
2023-05-19T11:05:53.603Z,26.77
2023-05-19T11:08:33.878Z,26.58
2023-05-19T11:11:18.516Z,26.40
2023-05-19T11:13:57.936Z,26.13
2023-05-19T11:16:32.913Z,25.89
2023-05-19T11:19:02.461Z,25.32
2023-05-19T11:21:49.534Z,24.56
2023-05-19T11:24:43.197Z,23.17
2023-05-19T11:27:18.516Z,20.50
2023-05-19T11:29:51.974Z,18.62
2023-05-19T11:32:22.932Z,17.20
2023-05-19T11:34:53.424Z,16.24
2023-05-19T11:37:22.277Z,15.57
2023-05-19T11:39:53.410Z,15.14
2023-05-19T11:42:22.419Z,14.94
2023-05-19T11:44:56.130Z,14.91
2023-05-19T11:47:25.030Z,14.93
2023-05-19T11:49:59.227Z,14.95
2023-05-19T11:52:28.117Z,15.05
2023-05-19T11:55:02.246Z,15.20
2023-05-19T11:57:31.657Z,15.37
2023-05-19T12:00:05.118Z,15.60
2023-05-19T12:02:34.220Z,15.82
2023-05-19T12:05:04.278Z,16.06
2023-05-19T12:07:33.123Z,16.43
2023-05-19T12:10:02.225Z,16.89
2023-05-19T12:12:31.518Z,17.43
2023-05-19T12:15:03.899Z,17.98
2023-05-19T12:17:33.342Z,18.59
2023-05-19T12:20:03.823Z,19.16
2023-05-19T12:22:32.905Z,19.78
2023-05-19T12:25:03.122Z,20.35
2023-05-19T12:27:35.413Z,20.86
2023-05-19T12:30:06.286Z,21.24
2023-05-19T12:32:36.735Z,21.59
2023-05-19T12:35:06.520Z,21.96
2023-05-19T12:37:37.350Z,22.26
2023-05-19T12:40:07.591Z,22.28
2023-05-19T12:42:38.167Z,22.21
2023-05-19T12:45:07.639Z,22.23
2023-05-19T12:47:37.257Z,22.32
2023-05-19T12:50:10.953Z,22.45
2023-05-19T12:52:53.959Z,22.54
2023-05-19T12:55:23.460Z,22.48
2023-05-19T12:57:58.569Z,22.43
2023-05-19T13:00:32.811Z,22.60
2023-05-19T13:03:06.688Z,22.72
2023-05-19T13:05:40.579Z,22.73
2023-05-19T13:08:21.936Z,22.65
2023-05-19T13:10:51.375Z,22.50
2023-05-19T13:13:20.365Z,22.31
2023-05-19T13:15:50.178Z,22.23
2023-05-19T13:18:21.476Z,22.19
2023-05-19T13:20:51.642Z,22.02
2023-05-19T13:23:20.838Z,22.00
2023-05-19T13:25:51.102Z,22.09
2023-05-19T13:28:20.054Z,22.07
2023-05-19T13:30:52.546Z,21.98
2023-05-19T13:33:22.242Z,21.79
2023-05-19T13:35:51.645Z,21.53
2023-05-19T13:38:21.251Z,21.36
2023-05-19T13:40:50.350Z,21.09
2023-05-19T13:43:19.326Z,20.86
2023-05-19T13:45:49.368Z,20.56
2023-05-19T13:48:19.416Z,20.36
2023-05-19T13:50:49.187Z,20.21
2023-05-19T13:53:18.077Z,20.03
2023-05-19T13:55:49.942Z,20.00
2023-05-19T13:58:19.228Z,19.88
2023-05-19T14:00:48.218Z,19.81
2023-05-19T14:03:20.020Z,19.88
2023-05-19T14:05:49.345Z,20.08
2023-05-19T14:08:19.203Z,20.41
2023-05-19T14:10:51.464Z,20.77
2023-05-19T14:13:32.639Z,21.10
2023-05-19T14:16:04.554Z,21.38
2023-05-19T14:18:33.606Z,21.60
2023-05-19T14:21:02.800Z,21.82
2023-05-19T14:23:32.967Z,22.05
2023-05-19T14:26:01.909Z,22.28
2023-05-19T14:28:30.796Z,22.49
2023-05-19T14:31:00.333Z,22.70
2023-05-19T14:33:34.865Z,22.85
2023-05-19T14:36:05.972Z,22.93
2023-05-19T14:38:34.960Z,23.00
2023-05-19T14:41:04.259Z,23.02
2023-05-19T14:43:33.151Z,22.95
2023-05-19T14:46:03.083Z,22.89
2023-05-19T14:48:32.970Z,22.84
2023-05-19T14:51:02.273Z,22.78
2023-05-19T14:53:31.070Z,22.68
2023-05-19T14:55:59.952Z,22.62
2023-05-19T14:58:29.505Z,22.60
2023-05-19T15:01:00.079Z,22.56
2023-05-19T15:03:29.209Z,22.54
2023-05-19T15:05:59.406Z,22.64
2023-05-19T15:08:28.402Z,22.60
2023-05-19T15:10:57.411Z,22.47
2023-05-19T15:13:26.791Z,22.26
2023-05-19T15:16:08.376Z,22.18
2023-05-19T15:18:44.499Z,21.96
2023-05-19T15:21:13.826Z,21.87
2023-05-19T15:23:42.638Z,21.86
2023-05-19T15:26:11.429Z,21.99
2023-05-19T15:28:40.320Z,22.16
2023-05-19T15:31:09.050Z,22.30
2023-05-19T15:33:37.896Z,22.37
2023-05-19T15:36:07.406Z,22.36
2023-05-19T15:38:37.749Z,22.44
2023-05-19T15:41:08.539Z,22.51
2023-05-19T15:43:37.666Z,22.56
2023-05-19T15:46:06.911Z,22.51
2023-05-19T15:48:35.961Z,22.52
2023-05-19T15:51:05.158Z,22.33
2023-05-19T15:53:33.926Z,22.07
2023-05-19T15:56:04.712Z,21.91
2023-05-19T15:58:34.268Z,21.92
2023-05-19T16:01:03.540Z,21.82
2023-05-19T16:03:32.369Z,21.83
2023-05-19T16:06:01.994Z,21.74
2023-05-19T16:08:30.971Z,21.61
2023-05-19T16:10:59.962Z,21.52
2023-05-19T16:13:28.740Z,21.68
2023-05-19T16:15:57.579Z,21.68
2023-05-19T16:18:26.627Z,21.62
2023-05-19T16:20:56.865Z,21.54
2023-05-19T16:23:27.801Z,21.26
2023-05-19T16:25:57.903Z,20.99
2023-05-19T16:28:28.580Z,20.86
2023-05-19T16:31:00.233Z,20.59
2023-05-19T16:33:29.177Z,20.29
2023-05-19T16:36:00.185Z,20.11
2023-05-19T16:38:29.734Z,19.94
2023-05-19T16:40:58.311Z,19.79
2023-05-19T16:43:27.204Z,19.67
2023-05-19T16:45:56.528Z,19.44
2023-05-19T16:48:25.195Z,19.34
2023-05-19T16:50:53.978Z,19.19
2023-05-19T16:53:23.493Z,19.07
2023-05-19T16:55:52.776Z,18.91
2023-05-19T16:58:21.575Z,18.75
2023-05-19T17:00:54.395Z,18.61
2023-05-19T17:03:23.982Z,18.37
2023-05-19T17:05:53.255Z,18.11
2023-05-19T17:08:22.141Z,17.89
2023-05-19T17:10:51.655Z,17.81
2023-05-19T17:13:20.447Z,17.75
2023-05-19T17:15:52.913Z,17.73
2023-05-19T17:18:21.793Z,17.65
2023-05-19T17:20:50.997Z,17.60
2023-05-19T17:23:19.987Z,17.56
2023-05-19T17:25:49.543Z,17.51
2023-05-19T17:28:18.350Z,17.45
2023-05-19T17:30:47.301Z,17.41
2023-05-19T17:33:16.881Z,17.36
2023-05-19T17:35:47.325Z,17.31
2023-05-19T17:38:16.402Z,17.26
2023-05-19T17:40:45.094Z,17.23
2023-05-19T17:43:13.982Z,17.21
2023-05-19T17:45:42.979Z,17.17
2023-05-19T17:48:11.993Z,17.14
2023-05-19T17:50:40.656Z,17.10
2023-05-19T17:53:10.559Z,17.06
2023-05-19T17:55:40.170Z,16.98
2023-05-19T17:58:09.566Z,16.91
2023-05-19T18:00:38.771Z,16.83
2023-05-19T18:03:08.301Z,16.73
2023-05-19T18:05:38.289Z,16.63
2023-05-19T18:08:09.672Z,16.55
2023-05-19T18:10:41.193Z,16.49
2023-05-19T18:13:14.114Z,16.43
2023-05-19T18:15:43.172Z,16.38
2023-05-19T18:18:12.606Z,16.33
2023-05-19T18:20:45.048Z,16.27
2023-05-19T18:23:13.737Z,16.22
2023-05-19T18:25:50.503Z,16.16
2023-05-19T18:28:19.516Z,16.11
2023-05-19T18:30:48.394Z,16.04
2023-05-19T18:33:17.287Z,15.94
2023-05-19T18:35:46.782Z,15.78
2023-05-19T18:38:15.470Z,15.61
2023-05-19T18:40:45.794Z,15.44
2023-05-19T18:43:14.492Z,15.29
2023-05-19T18:45:43.738Z,15.23
2023-05-19T18:48:12.495Z,15.16
2023-05-19T18:50:44.020Z,15.03
2023-05-19T18:53:12.809Z,14.93
2023-05-19T18:55:42.011Z,14.86
2023-05-19T18:58:10.996Z,14.75
2023-05-19T19:00:39.686Z,14.64
2023-05-19T19:03:10.678Z,14.55
2023-05-19T19:05:40.337Z,14.44
2023-05-19T19:08:09.120Z,14.32
2023-05-19T19:10:40.975Z,14.22
2023-05-19T19:13:09.877Z,14.15
2023-05-19T19:15:40.028Z,14.08
2023-05-19T19:18:09.418Z,13.99
2023-05-19T19:20:38.492Z,13.89
2023-05-19T19:23:07.906Z,13.77
2023-05-19T19:25:36.778Z,13.69
2023-05-19T19:28:05.671Z,13.63
2023-05-19T19:30:34.593Z,13.57
2023-05-19T19:33:04.814Z,13.51
2023-05-19T19:35:36.333Z,13.48
2023-05-19T19:38:05.252Z,13.44
2023-05-19T19:40:34.121Z,13.39
2023-05-19T19:43:03.639Z,13.33
2023-05-19T19:45:35.002Z,13.27
2023-05-19T19:48:04.263Z,13.20
2023-05-19T19:50:34.822Z,13.14
2023-05-19T19:53:03.989Z,13.09
2023-05-19T19:55:33.199Z,13.02
2023-05-19T19:58:01.978Z,12.97
2023-05-19T20:00:31.285Z,12.93
2023-05-19T20:05:32.175Z,13.05
2023-05-19T20:08:01.110Z,13.08
2023-05-19T20:10:30.011Z,13.06
2023-05-19T20:12:59.837Z,13.00
2023-05-19T20:15:28.615Z,12.97
2023-05-19T20:17:57.859Z,12.95
2023-05-19T20:20:27.008Z,12.93
2023-05-19T20:22:55.602Z,12.91
2023-05-19T20:25:25.201Z,12.89
2023-05-19T20:27:54.201Z,12.85
2023-05-19T20:30:23.189Z,12.80
2023-05-19T20:32:52.108Z,12.76
2023-05-19T20:35:21.386Z,12.69
2023-05-19T20:37:50.387Z,12.65
2023-05-19T20:40:19.178Z,12.63
2023-05-19T20:42:48.389Z,12.62
2023-05-19T20:45:18.786Z,12.62
2023-05-19T20:47:47.687Z,12.64
2023-05-19T20:50:16.462Z,12.61
2023-05-19T20:52:45.380Z,12.56
2023-05-19T20:55:14.354Z,12.54
2023-05-19T20:57:44.873Z,12.49
2023-05-19T21:00:14.557Z,12.46
2023-05-19T21:02:43.536Z,12.44
2023-05-19T21:05:12.813Z,12.37
2023-05-19T21:07:42.281Z,12.34
2023-05-19T21:10:14.148Z,12.31
2023-05-19T21:12:42.935Z,12.30
2023-05-19T21:15:12.191Z,12.30
2023-05-19T21:17:40.936Z,12.32
2023-05-19T21:20:10.576Z,12.30
2023-05-19T21:22:41.258Z,12.26
2023-05-19T21:25:10.726Z,12.21
2023-05-19T21:27:41.021Z,12.15
2023-05-19T21:30:10.900Z,12.11
2023-05-19T21:32:39.875Z,12.06
2023-05-19T21:35:09.396Z,12.02
2023-05-19T21:37:38.624Z,12.00
2023-05-19T21:40:08.489Z,11.98
2023-05-19T21:42:37.420Z,11.98
2023-05-19T21:45:07.394Z,11.97
2023-05-19T21:47:36.451Z,11.97
2023-05-19T21:50:05.844Z,11.97
2023-05-19T21:52:36.641Z,11.94
2023-05-19T21:55:06.453Z,11.94
2023-05-19T21:57:35.254Z,11.92
2023-05-19T22:00:06.905Z,11.90
2023-05-19T22:02:41.376Z,11.90
2023-05-19T22:05:11.345Z,11.96
2023-05-19T22:07:40.436Z,12.03
2023-05-19T22:10:10.403Z,12.06
2023-05-19T22:12:39.144Z,12.06
2023-05-19T22:15:08.761Z,11.98
2023-05-19T22:17:37.555Z,11.86
2023-05-19T22:20:08.429Z,11.77
2023-05-19T22:22:37.272Z,11.71
2023-05-19T22:25:07.653Z,11.70
2023-05-19T22:27:37.499Z,11.70
2023-05-19T22:30:07.951Z,11.71
2023-05-19T22:32:37.299Z,11.73
2023-05-19T22:35:07.456Z,11.76
2023-05-19T22:37:37.286Z,11.80
2023-05-19T22:40:07.590Z,11.81
2023-05-19T22:42:37.300Z,11.83
2023-05-19T22:45:07.313Z,11.82
2023-05-19T22:47:37.539Z,11.79
2023-05-19T22:50:10.445Z,11.76
2023-05-19T22:52:39.506Z,11.79
2023-05-19T22:55:09.482Z,11.81
2023-05-19T22:57:39.880Z,11.83
2023-05-19T23:00:10.478Z,11.86
2023-05-19T23:02:41.721Z,11.89
2023-05-19T23:05:12.059Z,11.92
2023-05-19T23:07:42.134Z,11.95
2023-05-19T23:10:13.211Z,11.97
2023-05-19T23:12:43.542Z,11.98
2023-05-19T23:15:13.675Z,12.01
2023-05-19T23:17:45.229Z,12.04
2023-05-19T23:20:15.354Z,12.04
2023-05-19T23:22:44.949Z,12.05
2023-05-19T23:25:14.256Z,12.05
2023-05-19T23:27:44.423Z,12.04
2023-05-19T23:30:13.850Z,12.04
2023-05-19T23:32:42.910Z,12.04
2023-05-19T23:35:18.067Z,12.05
2023-05-19T23:37:48.592Z,12.06
2023-05-19T23:40:19.642Z,12.06
2023-05-19T23:42:49.953Z,12.08
2023-05-19T23:45:19.777Z,12.09
2023-05-19T23:47:52.759Z,12.11
2023-05-19T23:50:23.408Z,12.13
2023-05-19T23:52:53.426Z,12.13
2023-05-19T23:55:24.191Z,12.12
2023-05-19T23:57:54.094Z,12.08
